• Join FlightAware (Why Join?)
  • Login
  • US Flag 
03:03PM EDT


 

Airport Tracker/Info


-or-


 

Live Flight TrackerFlight Track Log ✈ N102WC ✈ 19-Jul-2013 ✈ KALB - 6B9

Flight Track Log - Related Links

Times and Time Zones

All times are in EDT time to prevent confusion due to time zone crossing. See the N102WC flight status page for this flight to view local times or setup timezone preferences in your user account.

Time Position Orientation Groundspeed Altitude Reporting Facility
EDT Latitude Longitude Course Direction KTS MPH feet Rate Location/Type
01:14PM 42.7361 -73.8083 219° Southwest 103 119 900  Level Boston Center
01:15PM 42.7108 -73.8358 219° Southwest 112 129 2,500 1,020 Climbing Boston Center
01:16PM 42.7186 -73.8728 286° West 119 137 3,300 720 Climbing Boston Center
01:17PM 42.7283 -73.9211 285° West 134 154 3,900 780 Climbing Boston Center
01:18PM 42.7358 -73.9806 280° West 136 157 5,000 900 Climbing Boston Center
01:19PM 42.7394 -74.0261 276° West 128 147 5,900 780 Climbing Boston Center
01:20PM 42.7431 -74.0714 276° West 121 139 6,600 720 Climbing Boston Center
01:21PM 42.7444 -74.1194 272° West 119 137 7,500 780 Climbing Boston Center
01:22PM 42.7500 -74.1706 278° West 124 143 8,300 840 Climbing Boston Center
01:23PM 42.7533 -74.2158 276° West 126 145 9,200 720 Climbing Boston Center
01:25PM 42.7586 -74.2725 277° West 130 150 10,000 360 Climbing Boston Center
01:26PM 42.7661 -74.3294 280° West 145 167 10,000  Level Boston Center
01:32PM 42.7780 -74.6750 280° West 146 168 -1,620 Descending FlightAware
01:32PM 42.7790 -74.6950 274° West 148 170  Level FlightAware
01:33PM 42.7800 -74.7210 273° West 150 173  Level FlightAware
01:34PM 42.7850 -74.7860 276° West 144 166  Level FlightAware
01:34PM 42.7880 -74.8200 277° West 142 163  Level FlightAware
01:35PM 42.7900 -74.8360 280° West 146 168  Level FlightAware
01:35PM 42.7930 -74.8610 279° West 148 170  Level FlightAware
01:36PM 42.7960 -74.8880 279° West 146 168  Level FlightAware
01:36PM 42.7990 -74.9170 278° West 149 171  Level FlightAware
01:36PM 42.8000 -74.9270 278° West 153 176  Level FlightAware
01:37PM 42.8030 -74.9550 278° West 160 184  Level FlightAware
01:37PM 42.8040 -74.9620 281° West 161 185  Level FlightAware
01:38PM 42.8060 -74.9840 277° West 142 163  Level FlightAware
01:38PM 42.8100 -75.0210 278° West 147 169  Level FlightAware
01:39PM 42.8130 -75.0480 279° West 152 175  Level FlightAware
01:39PM 42.8170 -75.0850 278° West 147 169  Level FlightAware
01:40PM 42.8190 -75.1020 279° West 145 167  Level FlightAware
01:40PM 42.8210 -75.1230 277° West 145 167  Level FlightAware
01:40PM 42.8250 -75.1500 281° West 148 170  Level FlightAware
01:41PM 42.8280 -75.1820 277° West 148 170  Level FlightAware
01:42PM 42.8310 -75.2030 281° West 142 163  Level FlightAware
01:42PM 42.8330 -75.2270 276° West 145 167  Level FlightAware
01:43PM 42.8390 -75.2680 281° West 151 174  Level FlightAware
01:43PM 42.8410 -75.2920 276° West 149 171  Level FlightAware
01:43PM 42.8420 -75.3070 275° West 147 169  Level FlightAware
01:44PM 42.8430 -75.3320 273° West 143 165  Level FlightAware
01:44PM 42.8450 -75.3540 277° West 144 166  Level FlightAware
01:45PM 42.8470 -75.3790 276° West 144 166  Level FlightAware
01:45PM 42.8490 -75.4050 276° West 142 163  Level FlightAware
01:46PM 42.8510 -75.4340 275° West 153 176  Level FlightAware
01:46PM 42.8530 -75.4610 276° West 152 175  Level FlightAware
01:46PM 42.8540 -75.4740 276° West 148 170  Level FlightAware
01:47PM 42.8550 -75.4950 274° West 144 166  Level FlightAware
01:47PM 42.8560 -75.5090 276° West 145 167  Level FlightAware
01:47PM 42.8570 -75.5270 274° West 161 185  Level FlightAware
01:48PM 42.8580 -75.5630 272° West 167 192  Level FlightAware
01:48PM 42.8600 -75.5880 276° West 175 201  Level FlightAware
01:49PM 42.8640 -75.6350 277° West 173 199  Level FlightAware
01:49PM 42.8660 -75.6670 275° West 174 200  Level FlightAware
01:50PM 42.8680 -75.6960 275° West 185 213  Level FlightAware
01:50PM 42.8710 -75.7260 278° West 183 211  Level FlightAware
01:51PM 42.8760 -75.7530 284° West 156 180  Level FlightAware
01:51PM 42.8790 -75.7710 283° West 157 181  Level FlightAware
01:52PM 42.8820 -75.7940 280° West 172 198  Level FlightAware
01:52PM 42.8830 -75.8030 279° West 174 200  Level FlightAware
01:52PM 42.8850 -75.8190 280° West 171 197  Level FlightAware
01:53PM 42.8860 -75.8570 272° West 173 199  Level FlightAware
01:53PM 42.8880 -75.8960 274° West 166 191  Level FlightAware
01:53PM 42.8890 -75.9240 273° West 160 184  Level FlightAware
01:54PM 42.8900 -75.9560 272° West 159 183  Level FlightAware
01:54PM 42.8910 -75.9680 276° West 159 183  Level FlightAware
01:54PM 42.8910 -75.9860 270° West 157 181  Level FlightAware
01:55PM 42.8920 -76.0060 274° West 160 184  Level FlightAware
01:56PM 42.8930 -76.0490 272° West 160 184  Level FlightAware
01:56PM 42.8940 -76.0740 273° West 156 180  Level FlightAware
01:56PM 42.8950 -76.0980 273° West 152 175  Level FlightAware
01:57PM 42.8950 -76.1250 270° West 153 176  Level FlightAware
01:57PM 42.8960 -76.1490 273° West 151 174  Level FlightAware
01:58PM 42.8980 -76.1730 276° West 145 167  Level FlightAware
01:58PM 42.8990 -76.1960 273° West 146 168  Level FlightAware
01:59PM 42.9020 -76.2300 277° West 146 168  Level FlightAware
02:05PM 42.9000 -76.4333 270° West  Level FlightAware Approximate
02:06PM 42.9140 -76.4408 270° West  Level Estimated
02:07PM 42.9140 -76.4408 270° West  Level Estimated
02:08PM 42.9140 -76.4408 270° West  Level Estimated